Time,TemperatureF,DewpointF,PressureIn,WindDirection,WindDirectionDegrees,WindSpeedMPH,WindSpeedGustMPH,Humidity,HourlyPrecipIn,Conditions,Clouds,dailyrainin,SolarRadiationWatts/m^2,SoftwareType,DateUTC
2013-07-11 00:01:00,74.0,71.0,-100.00,South,185,0.0,2.0,91,0.00,,,0.00,0.000000,,2013-07-11 04:01:00,
2013-07-11 00:32:00,76.0,73.0,-100.00,South,180,2.0,5.0,90,0.00,,,0.00,0.000000,,2013-07-11 04:32:00,
2013-07-11 00:43:00,76.0,73.0,-100.00,South,180,2.0,5.0,90,0.00,,,0.00,0.000000,,2013-07-11 04:43:00,
2013-07-11 00:53:00,76.0,73.0,-100.00,South,180,2.0,5.0,90,0.00,,,0.00,0.000000,,2013-07-11 04:53:00,
2013-07-11 01:02:00,76.0,73.0,-100.00,South,180,2.0,5.0,90,0.00,,,0.00,0.000000,,2013-07-11 05:02:00,
2013-07-11 01:32:00,75.0,72.0,-100.00,West,262,1.0,5.0,89,0.00,,,0.00,0.000000,,2013-07-11 05:32:00,
2013-07-11 01:43:00,75.0,72.0,-100.00,West,262,1.0,5.0,89,0.00,,,0.00,0.000000,,2013-07-11 05:43:00,
2013-07-11 01:52:00,75.0,72.0,-100.00,West,262,1.0,5.0,89,0.00,,,0.00,0.000000,,2013-07-11 05:52:00,
2013-07-11 02:01:00,75.0,72.0,-100.00,West,262,1.0,5.0,89,0.00,,,0.00,0.000000,,2013-07-11 06:01:00,
2013-07-11 02:22:00,74.0,72.0,-100.00,SSW,213,0.0,3.0,92,0.00,,,0.00,0.000000,,2013-07-11 06:22:00,
2013-07-11 02:32:00,74.0,72.0,-100.00,SSW,213,0.0,3.0,92,0.00,,,0.00,0.000000,,2013-07-11 06:32:00,
2013-07-11 02:43:00,74.0,72.0,-100.00,SSW,213,0.0,3.0,92,0.00,,,0.00,0.000000,,2013-07-11 06:43:00,
2013-07-11 02:53:00,74.0,72.0,-100.00,SSW,213,0.0,3.0,92,0.00,,,0.00,0.000000,,2013-07-11 06:53:00,
2013-07-11 03:02:00,74.0,72.0,-100.00,SSW,213,0.0,3.0,92,0.00,,,0.00,0.000000,,2013-07-11 07:02:00,
2013-07-11 03:32:00,74.0,72.0,-100.00,West,263,1.0,2.0,93,0.00,,,0.00,0.000000,,2013-07-11 07:32:00,
2013-07-11 03:45:00,74.0,72.0,-100.00,West,263,1.0,2.0,93,0.00,,,0.00,0.000000,,2013-07-11 07:45:00,
2013-07-11 03:53:00,74.0,72.0,-100.00,West,263,1.0,2.0,93,0.00,,,0.00,0.000000,,2013-07-11 07:53:00,
2013-07-11 04:02:00,74.0,72.0,-100.00,West,263,1.0,2.0,93,0.00,,,0.00,0.000000,,2013-07-11 08:02:00,
2013-07-11 04:34:00,73.0,71.0,-100.00,WNW,294,0.0,0.0,94,0.00,,,0.00,0.000000,,2013-07-11 08:34:00,
2013-07-11 04:43:00,73.0,71.0,-100.00,WNW,294,0.0,0.0,94,0.00,,,0.00,0.000000,,2013-07-11 08:43:00,
2013-07-11 04:53:00,73.0,71.0,-100.00,WNW,294,0.0,0.0,94,0.00,,,0.00,0.000000,,2013-07-11 08:53:00,
2013-07-11 05:03:00,73.0,71.0,-100.00,WNW,294,0.0,0.0,94,0.00,,,0.00,0.000000,,2013-07-11 09:03:00,
2013-07-11 05:33:00,72.0,70.0,-100.00,SE,145,0.0,0.0,94,0.00,,,0.00,0.000000,,2013-07-11 09:33:00,
2013-07-11 05:43:00,72.0,70.0,-100.00,SE,145,0.0,0.0,94,0.00,,,0.00,0.000000,,2013-07-11 09:43:00,
2013-07-11 05:53:00,72.0,70.0,-100.00,SE,145,0.0,0.0,94,0.00,,,0.00,0.000000,,2013-07-11 09:53:00,
2013-07-11 06:01:00,72.0,70.0,-100.00,SE,145,0.0,0.0,94,0.00,,,0.00,0.000000,,2013-07-11 10:01:00,
2013-07-11 06:33:00,72.0,70.0,-100.00,West,259,0.0,2.0,95,0.00,,,0.00,0.000000,,2013-07-11 10:33:00,
2013-07-11 06:43:00,72.0,70.0,-100.00,West,259,0.0,2.0,95,0.00,,,0.00,0.000000,,2013-07-11 10:43:00,
2013-07-11 06:52:00,72.0,70.0,-100.00,West,259,0.0,2.0,95,0.00,,,0.00,0.000000,,2013-07-11 10:52:00,
2013-07-11 07:02:00,72.0,70.0,-100.00,West,259,0.0,2.0,95,0.00,,,0.00,0.000000,,2013-07-11 11:02:00,
2013-07-11 07:33:00,72.0,70.0,-100.00,SW,227,0.0,0.0,95,0.00,,,-99.99,6.000000,,2013-07-11 11:33:00,
2013-07-11 07:43:00,72.0,70.0,-100.00,SW,227,0.0,0.0,95,0.00,,,-99.99,6.000000,,2013-07-11 11:43:00,
2013-07-11 07:53:00,72.0,70.0,-100.00,SW,227,0.0,0.0,95,0.00,,,-99.99,6.000000,,2013-07-11 11:53:00,
2013-07-11 08:01:00,72.0,70.0,-100.00,SW,227,0.0,0.0,95,0.00,,,-99.99,6.000000,,2013-07-11 12:01:00,
2013-07-11 08:33:00,78.0,76.0,-100.00,South,171,1.0,3.0,94,0.00,,,-99.99,107.000000,,2013-07-11 12:33:00,
2013-07-11 08:43:00,78.0,76.0,-100.00,South,171,1.0,3.0,94,0.00,,,-99.99,107.000000,,2013-07-11 12:43:00,
2013-07-11 08:57:00,78.0,76.0,-100.00,South,171,1.0,3.0,94,0.00,,,-99.99,107.000000,,2013-07-11 12:57:00,
2013-07-11 09:02:00,78.0,76.0,-100.00,South,171,1.0,3.0,94,0.00,,,-99.99,107.000000,,2013-07-11 13:02:00,
2013-07-11 09:04:00,81.0,74.0,-100.00,WSW,255,3.0,7.0,80,0.00,,,0.00,298.000000,,2013-07-11 13:04:00,
2013-07-11 09:47:00,81.0,74.0,-100.00,WSW,255,3.0,7.0,80,0.00,,,0.00,298.000000,,2013-07-11 13:47:00,
2013-07-11 09:55:00,81.0,74.0,-100.00,WSW,255,3.0,7.0,80,0.00,,,0.00,298.000000,,2013-07-11 13:55:00,
2013-07-11 10:04:00,83.0,74.0,-100.00,West,275,4.0,9.0,74,0.00,,,0.00,450.000000,,2013-07-11 14:04:00,
2013-07-11 10:36:00,83.0,74.0,-100.00,West,275,4.0,9.0,74,0.00,,,0.00,450.000000,,2013-07-11 14:36:00,
2013-07-11 10:47:00,83.0,74.0,-100.00,West,275,4.0,9.0,74,0.00,,,0.00,450.000000,,2013-07-11 14:47:00,
2013-07-11 10:55:00,83.0,74.0,-100.00,West,275,4.0,9.0,74,0.00,,,0.00,450.000000,,2013-07-11 14:55:00,
2013-07-11 11:04:00,87.0,74.0,-100.00,West,272,3.0,8.0,66,0.00,,,0.00,669.000000,,2013-07-11 15:04:00,
2013-07-11 11:38:00,87.0,74.0,-100.00,West,272,3.0,8.0,66,0.00,,,0.00,669.000000,,2013-07-11 15:38:00,
2013-07-11 11:48:00,87.0,74.0,-100.00,West,272,3.0,8.0,66,0.00,,,0.00,669.000000,,2013-07-11 15:48:00,
2013-07-11 12:36:00,88.0,73.0,-100.00,West,281,4.0,9.0,61,0.00,,,0.00,781.000000,,2013-07-11 16:36:00,
2013-07-11 12:49:00,88.0,73.0,-100.00,West,281,4.0,9.0,61,0.00,,,0.00,781.000000,,2013-07-11 16:49:00,
2013-07-11 12:56:00,88.0,73.0,-100.00,West,281,4.0,9.0,61,0.00,,,0.00,781.000000,,2013-07-11 16:56:00,
2013-07-11 13:03:00,88.0,73.0,-100.00,West,281,4.0,9.0,61,0.00,,,0.00,781.000000,,2013-07-11 17:03:00,
2013-07-11 13:04:00,90.0,75.0,-100.00,NW,305,4.0,8.0,62,0.00,,,0.00,719.000000,,2013-07-11 17:04:00,
2013-07-11 13:40:00,90.0,75.0,-100.00,NW,305,4.0,8.0,62,0.00,,,0.00,719.000000,,2013-07-11 17:40:00,
2013-07-11 13:49:00,90.0,75.0,-100.00,NW,305,4.0,8.0,62,0.00,,,0.00,719.000000,,2013-07-11 17:49:00,
2013-07-11 13:56:00,90.0,75.0,-100.00,NW,305,4.0,8.0,62,0.00,,,0.00,719.000000,,2013-07-11 17:56:00,
2013-07-11 14:04:00,91.0,74.0,-100.00,West,277,3.0,7.0,57,0.00,,,0.00,849.000000,,2013-07-11 18:04:00,
2013-07-11 14:49:00,91.0,74.0,-100.00,West,277,3.0,7.0,57,0.00,,,0.00,849.000000,,2013-07-11 18:49:00,
2013-07-11 14:56:00,91.0,74.0,-100.00,West,277,3.0,7.0,57,0.00,,,0.00,849.000000,,2013-07-11 18:56:00,
2013-07-11 15:04:00,90.0,75.0,-100.00,ESE,117,4.0,9.0,62,0.00,,,0.00,546.000000,,2013-07-11 19:04:00,
2013-07-11 15:25:00,90.0,75.0,-100.00,ESE,117,4.0,9.0,62,0.00,,,0.00,546.000000,,2013-07-11 19:25:00,
2013-07-11 15:39:00,90.0,75.0,-100.00,ESE,117,4.0,9.0,62,0.00,,,0.00,546.000000,,2013-07-11 19:39:00,
2013-07-11 15:47:00,90.0,75.0,-100.00,ESE,117,4.0,9.0,62,0.00,,,0.00,546.000000,,2013-07-11 19:47:00,
2013-07-11 15:57:00,90.0,75.0,-100.00,ESE,117,4.0,9.0,62,0.00,,,0.00,546.000000,,2013-07-11 19:57:00,
2013-07-11 16:04:00,83.0,75.0,-100.00,ENE,71,2.0,8.0,78,0.04,,,0.04,271.000000,,2013-07-11 20:04:00,
2013-07-11 16:40:00,83.0,75.0,-100.00,ENE,71,2.0,8.0,78,0.04,,,0.04,271.000000,,2013-07-11 20:40:00,
2013-07-11 16:50:00,83.0,75.0,-100.00,ENE,71,2.0,8.0,78,0.04,,,0.04,271.000000,,2013-07-11 20:50:00,
2013-07-11 16:56:00,83.0,75.0,-100.00,ENE,71,2.0,8.0,78,0.04,,,0.04,271.000000,,2013-07-11 20:56:00,
2013-07-11 17:04:00,75.0,72.0,-100.00,SW,230,2.0,11.0,90,0.48,,,0.52,49.000000,,2013-07-11 21:04:00,
2013-07-11 17:58:00,75.0,72.0,-100.00,SW,230,2.0,11.0,90,0.48,,,0.52,49.000000,,2013-07-11 21:58:00,
2013-07-11 18:04:00,80.0,78.0,-100.00,South,183,2.0,4.0,93,-99.99,,,-99.99,188.000000,,2013-07-11 22:04:00,
2013-07-11 18:36:00,80.0,78.0,-100.00,South,183,2.0,4.0,93,-99.99,,,-99.99,188.000000,,2013-07-11 22:36:00,
2013-07-11 18:49:00,80.0,78.0,-100.00,South,183,2.0,4.0,93,-99.99,,,-99.99,188.000000,,2013-07-11 22:49:00,
2013-07-11 18:55:00,80.0,78.0,-100.00,South,183,2.0,4.0,93,-99.99,,,-99.99,188.000000,,2013-07-11 22:55:00,
2013-07-11 19:04:00,84.0,77.0,-100.00,SSE,153,4.0,10.0,79,0.00,,,-99.99,292.000000,,2013-07-11 23:04:00,
2013-07-11 19:37:00,84.0,77.0,-100.00,SSE,153,4.0,10.0,79,0.00,,,-99.99,292.000000,,2013-07-11 23:37:00,
2013-07-11 19:47:00,84.0,77.0,-100.00,SSE,153,4.0,10.0,79,0.00,,,-99.99,292.000000,,2013-07-11 23:47:00,
2013-07-11 20:00:00,84.0,77.0,-100.00,SSE,153,4.0,10.0,79,0.00,,,-99.99,292.000000,,2013-07-12 00:00:00,
2013-07-11 20:04:00,80.0,75.0,-100.00,SSE,155,3.0,11.0,84,0.00,,,0.52,72.000000,,2013-07-12 00:04:00,
2013-07-11 20:26:00,80.0,75.0,-100.00,SSE,155,3.0,11.0,84,0.00,,,0.52,72.000000,,2013-07-12 00:26:00,
2013-07-11 20:37:00,80.0,75.0,-100.00,SSE,155,3.0,11.0,84,0.00,,,0.52,72.000000,,2013-07-12 00:37:00,
2013-07-11 20:58:00,80.0,75.0,-100.00,SSE,155,3.0,11.0,84,0.00,,,0.52,72.000000,,2013-07-12 00:58:00,
2013-07-11 21:04:00,76.0,71.0,-100.00,SSE,168,2.0,9.0,84,0.00,,,0.52,1.000000,,2013-07-12 01:04:00,
2013-07-11 21:49:00,76.0,71.0,-100.00,SSE,168,2.0,9.0,84,0.00,,,0.52,1.000000,,2013-07-12 01:49:00,
2013-07-11 21:56:00,76.0,71.0,-100.00,SSE,168,2.0,9.0,84,0.00,,,0.52,1.000000,,2013-07-12 01:56:00,
2013-07-11 22:04:00,74.0,72.0,-100.00,SE,137,1.0,5.0,93,0.02,,,0.54,0.000000,,2013-07-12 02:04:00,
2013-07-11 22:36:00,74.0,72.0,-100.00,SE,137,1.0,5.0,93,0.02,,,0.54,0.000000,,2013-07-12 02:36:00,
2013-07-11 22:46:00,74.0,72.0,-100.00,SE,137,1.0,5.0,93,0.02,,,0.54,0.000000,,2013-07-12 02:46:00,
2013-07-11 22:55:00,74.0,72.0,-100.00,SE,137,1.0,5.0,93,0.02,,,0.54,0.000000,,2013-07-12 02:55:00,
2013-07-11 23:38:00,73.0,71.0,-100.00,NW,317,2.0,4.0,94,0.00,,,0.54,0.000000,,2013-07-12 03:38:00,
2013-07-11 23:46:00,73.0,71.0,-100.00,NW,317,2.0,4.0,94,0.00,,,0.54,0.000000,,2013-07-12 03:46:00,
2013-07-11 23:56:00,73.0,71.0,-100.00,NW,317,2.0,4.0,94,0.00,,,0.54,0.000000,,2013-07-12 03:56:00,